Time;durP1;ratioP1;P1;durP2;ratioP2;P2;SDS_P1;SDS_P2;PMS_P1;PMS_P2;Temp;Humidity;BMP_temperature;BMP_pressure;BME280_temperature;BME280_humidity;BME280_pressure;Samples;Min_cycle;Max_cycle;Signal;HPM_P1;HPM_P2
2023/06/29 00:01:34;;;;;;;11.13;4.15;;;;;;;15.01;100.00;100390.66;5021918;28;20032;-75
2023/06/29 00:04:01;;;;;;;7.03;3.75;;;;;;;14.96;100.00;100382.78;5043341;28;20081;-76
2023/06/29 00:06:28;;;;;;;4.82;3.72;;;;;;;14.94;100.00;100391.94;5042955;28;20103;-76
2023/06/29 00:08:53;;;;;;;6.28;3.97;;;;;;;14.90;100.00;100399.25;5044597;28;20025;-77
2023/06/29 00:11:22;;;;;;;6.47;3.78;;;;;;;14.87;100.00;100394.56;5044102;28;20032;-76
2023/06/29 00:13:48;;;;;;;9.60;3.92;;;;;;;14.82;100.00;100401.88;5009992;28;20039;-77
2023/06/29 00:16:16;;;;;;;5.93;3.60;;;;;;;14.79;100.00;100395.06;5038528;28;20104;-77
2023/06/29 00:18:42;;;;;;;5.95;3.72;;;;;;;14.77;100.00;100394.00;5035595;28;20026;-76
2023/06/29 00:21:08;;;;;;;8.90;4.10;;;;;;;14.77;100.00;100399.78;5035848;28;20374;-77
2023/06/29 00:23:34;;;;;;;6.25;4.05;;;;;;;14.78;100.00;100396.34;5035697;28;20085;-77
2023/06/29 00:26:02;;;;;;;6.13;3.63;;;;;;;14.75;100.00;100397.41;5036427;28;20064;-78
2023/06/29 00:28:28;;;;;;;6.10;3.95;;;;;;;14.75;100.00;100399.50;5039009;28;20075;-77
2023/06/29 00:30:54;;;;;;;10.30;3.67;;;;;;;14.83;100.00;100409.16;5038424;28;20026;-78
2023/06/29 00:33:21;;;;;;;5.05;3.28;;;;;;;14.86;100.00;100410.25;5019663;28;20065;-76
2023/06/29 00:35:47;;;;;;;4.25;3.83;;;;;;;14.86;100.00;100401.59;5037013;28;20033;-76
2023/06/29 00:38:12;;;;;;;4.70;3.47;;;;;;;14.84;100.00;100400.03;5037835;28;20029;-76
2023/06/29 00:40:39;;;;;;;7.25;3.88;;;;;;;14.79;100.00;100394.25;5037112;28;20366;-75
2023/06/29 00:43:08;;;;;;;7.90;4.05;;;;;;;14.82;100.00;100404.75;5019235;28;20060;-75
2023/06/29 00:45:33;;;;;;;11.18;4.53;;;;;;;14.79;100.00;100408.66;5036537;28;20059;-77
2023/06/29 00:48:00;;;;;;;7.95;4.10;;;;;;;14.74;100.00;100397.91;5036831;28;20026;-76
2023/06/29 00:50:27;;;;;;;5.95;3.92;;;;;;;14.74;100.00;100415.19;5036657;28;20032;-75
2023/06/29 00:52:52;;;;;;;5.97;4.28;;;;;;;14.72;100.00;100406.28;5002356;28;20033;-75
2023/06/29 00:55:19;;;;;;;6.03;3.65;;;;;;;14.67;100.00;100402.09;5036061;28;20043;-75
2023/06/29 00:57:45;;;;;;;9.23;4.22;;;;;;;14.63;100.00;100409.38;5035349;28;20689;-75
2023/06/29 01:00:14;;;;;;;9.40;4.20;;;;;;;14.57;100.00;100400.75;5034912;28;20096;-74
2023/06/29 01:02:42;;;;;;;6.25;3.70;;;;;;;14.53;100.00;100400.19;5017626;28;20041;-75
2023/06/29 01:05:09;;;;;;;5.40;3.70;;;;;;;14.49;100.00;100404.63;5017897;28;20034;-74
2023/06/29 01:07:59;;;;;;;5.55;3.85;;;;;;;14.46;100.00;100397.81;5034722;28;20485;-74
2023/06/29 01:10:32;;;;;;;5.78;3.80;;;;;;;14.42;100.00;100391.53;5034717;28;20060;-75
2023/06/29 01:12:59;;;;;;;8.30;4.00;;;;;;;14.39;100.00;100398.31;5000514;28;20033;-75
2023/06/29 01:15:31;;;;;;;8.65;4.28;;;;;;;14.36;100.00;100393.59;5032489;28;20678;-75
2023/06/29 01:17:58;;;;;;;6.25;4.05;;;;;;;14.33;100.00;100404.03;5016993;28;20471;-75
2023/06/29 01:20:25;;;;;;;8.88;3.70;;;;;;;14.31;100.00;100400.13;5017223;28;20029;-74
2023/06/29 01:23:07;;;;;;;9.82;4.13;;;;;;;14.24;100.00;100395.63;5034920;28;20030;-74
2023/06/29 01:25:36;;;;;;;6.25;4.30;;;;;;;14.25;100.00;100402.97;5000770;28;20037;-76
2023/06/29 01:28:09;;;;;;;9.10;4.32;;;;;;;14.22;100.00;100404.00;4997330;28;20146;-74
2023/06/29 01:30:48;;;;;;;7.13;4.57;;;;;;;14.17;100.00;100395.34;5013566;28;20033;-75
2023/06/29 01:33:18;;;;;;;5.68;4.13;;;;;;;14.18;100.00;100405.56;5013648;28;20057;-75
2023/06/29 01:35:45;;;;;;;5.20;3.97;;;;;;;14.16;100.00;100403.19;5014721;28;20026;-75
2023/06/29 01:38:23;;;;;;;7.57;4.05;;;;;;;14.06;100.00;100393.22;4995743;28;20471;-75
2023/06/29 01:40:49;;;;;;;7.55;4.15;;;;;;;14.10;100.00;100407.34;5014564;28;20080;-75
2023/06/29 01:43:22;;;;;;;7.03;4.47;;;;;;;14.07;100.00;100403.41;5014602;28;20053;-76
2023/06/29 01:45:47;;;;;;;7.03;3.75;;;;;;;14.06;100.00;100412.53;4997066;28;20022;-76
2023/06/29 01:48:13;;;;;;;12.15;4.63;;;;;;;14.04;100.00;100403.63;5013459;28;20034;-75
2023/06/29 01:50:48;;;;;;;6.30;4.68;;;;;;;14.02;100.00;100407.03;4981466;28;20387;-75
2023/06/29 01:53:13;;;;;;;5.20;4.25;;;;;;;14.00;100.00;100398.16;5015409;28;20033;-75
2023/06/29 01:55:39;;;;;;;8.25;4.50;;;;;;;13.97;100.00;100402.84;5015234;28;20026;-76
2023/06/29 01:58:04;;;;;;;7.57;4.20;;;;;;;13.93;100.00;100395.78;5015234;28;20048;-74
2023/06/29 02:00:30;;;;;;;7.93;4.22;;;;;;;13.91;100.00;100396.28;5015093;28;20042;-76
2023/06/29 02:02:56;;;;;;;12.20;4.78;;;;;;;13.88;100.00;100388.69;5015168;28;20087;-74
2023/06/29 02:05:22;;;;;;;5.63;4.40;;;;;;;13.88;100.00;100387.91;5015334;28;20018;-76
2023/06/29 02:07:48;;;;;;;6.63;4.60;;;;;;;13.87;100.00;100392.88;5014140;28;20037;-75
2023/06/29 02:10:13;;;;;;;9.32;4.78;;;;;;;13.87;100.00;100390.00;5015306;28;20053;-76
2023/06/29 02:12:40;;;;;;;4.93;4.03;;;;;;;13.87;100.00;100397.81;4997513;28;20040;-76
2023/06/29 02:15:07;;;;;;;5.82;4.18;;;;;;;13.83;100.00;100392.31;5013732;28;20426;-76
2023/06/29 02:17:35;;;;;;;9.13;4.45;;;;;;;13.82;100.00;100398.56;5013693;28;20553;-75
2023/06/29 02:20:02;;;;;;;5.00;4.07;;;;;;;13.78;100.00;100398.81;5013790;28;20030;-76
2023/06/29 02:22:27;;;;;;;7.80;5.00;;;;;;;13.70;100.00;100391.97;5014399;28;20049;-76
2023/06/29 02:24:52;;;;;;;5.90;4.18;;;;;;;13.73;100.00;100398.78;5014866;28;20025;-76
2023/06/29 02:27:19;;;;;;;8.75;4.95;;;;;;;13.71;100.00;100399.28;5013427;28;20046;-76
2023/06/29 02:29:44;;;;;;;8.98;5.45;;;;;;;13.68;100.00;100396.66;5014812;28;20121;-74
2023/06/29 02:32:10;;;;;;;6.00;5.13;;;;;;;13.64;100.00;100402.63;4997239;28;20057;-75
2023/06/29 02:34:37;;;;;;;8.93;4.40;;;;;;;13.64;100.00;100405.50;5014549;28;20467;-75
2023/06/29 02:37:03;;;;;;;6.15;4.72;;;;;;;13.60;100.00;100402.09;5014864;28;20056;-76
2023/06/29 02:39:29;;;;;;;7.38;4.80;;;;;;;13.59;100.00;100405.47;5013283;28;20033;-76
2023/06/29 02:41:54;;;;;;;6.25;5.65;;;;;;;13.58;100.00;100406.78;5014788;28;20034;-75
2023/06/29 02:44:21;;;;;;;8.57;5.47;;;;;;;13.58;100.00;100403.91;5014277;28;20045;-75
2023/06/29 02:46:46;;;;;;;7.60;5.10;;;;;;;13.56;100.00;100407.28;5013103;28;20030;-76
2023/06/29 02:49:12;;;;;;;11.32;5.90;;;;;;;13.55;100.00;100412.22;5013988;28;20357;-76
2023/06/29 02:51:37;;;;;;;8.18;5.70;;;;;;;13.54;100.00;100404.91;5014528;28;20071;-75
2023/06/29 02:54:03;;;;;;;8.88;5.20;;;;;;;13.55;100.00;100402.81;5014595;28;20160;-74
2023/06/29 02:56:30;;;;;;;9.00;5.47;;;;;;;13.56;100.00;100413.03;5014504;28;20108;-75
2023/06/29 02:58:55;;;;;;;9.50;5.47;;;;;;;13.51;100.00;100408.03;4996621;28;20034;-75
2023/06/29 03:01:21;;;;;;;11.90;5.65;;;;;;;13.47;100.00;100405.38;4996520;28;20052;-75
2023/06/29 03:03:48;;;;;;;7.72;5.80;;;;;;;13.46;100.00;100415.28;5012775;28;20383;-75
2023/06/29 03:06:13;;;;;;;7.32;5.15;;;;;;;13.46;100.00;100418.13;5014172;28;20053;-75
2023/06/29 03:08:39;;;;;;;9.68;4.90;;;;;;;13.48;100.00;100417.63;5013887;28;20450;-76
2023/06/29 03:11:05;;;;;;;7.82;5.25;;;;;;;13.50;100.00;100415.03;5013508;28;20483;-74
2023/06/29 03:13:30;;;;;;;6.72;5.40;;;;;;;13.53;100.00;100420.59;5013899;28;20033;-76
2023/06/29 03:15:59;;;;;;;11.85;5.53;;;;;;;13.57;100.00;100417.47;5013984;28;20037;-75
2023/06/29 03:18:26;;;;;;;6.75;5.07;;;;;;;13.58;100.00;100412.53;5014210;28;20025;-76
2023/06/29 03:20:51;;;;;;;12.98;5.32;;;;;;;13.66;100.00;100422.22;5012867;28;20041;-76
2023/06/29 03:23:17;;;;;;;9.32;5.55;;;;;;;13.72;100.00;100432.47;5014084;28;20041;-75
2023/06/29 03:25:44;;;;;;;11.38;5.50;;;;;;;13.71;100.00;100424.34;5013821;28;20055;-74
2023/06/29 03:28:10;;;;;;;9.43;5.03;;;;;;;13.66;100.00;100428.75;5027953;28;20053;-75
2023/06/29 03:30:35;;;;;;;9.48;5.63;;;;;;;13.62;100.00;100421.69;5032532;28;20042;-76
2023/06/29 03:33:02;;;;;;;13.48;5.57;;;;;;;13.71;100.00;100430.09;5033984;28;20375;-75
2023/06/29 03:35:28;;;;;;;7.68;4.97;;;;;;;13.77;100.00;100431.72;5033737;28;20029;-75
2023/06/29 03:37:55;;;;;;;6.70;4.63;;;;;;;13.82;100.00;100428.09;5033314;28;20036;-75
2023/06/29 03:40:21;;;;;;;6.80;4.60;;;;;;;13.88;100.00;100442.50;5033190;28;20029;-75
2023/06/29 03:42:46;;;;;;;8.90;5.22;;;;;;;13.94;100.00;100434.66;5033613;28;20025;-75
2023/06/29 03:45:12;;;;;;;7.28;4.28;;;;;;;13.99;100.00;100443.31;5030198;28;20479;-74
2023/06/29 03:47:39;;;;;;;10.05;5.28;;;;;;;14.06;100.00;100444.16;5033273;28;20040;-74
2023/06/29 03:50:06;;;;;;;5.40;4.18;;;;;;;14.11;100.00;100444.19;5033190;28;20496;-74
2023/06/29 03:52:32;;;;;;;6.38;5.03;;;;;;;14.14;100.00;100433.72;5051319;28;20029;-75
2023/06/29 03:54:57;;;;;;;11.60;4.43;;;;;;;14.18;100.00;100440.06;5052325;28;20075;-74
2023/06/29 03:57:23;;;;;;;9.63;4.38;;;;;;;14.21;100.00;100445.53;5053277;28;20052;-74
2023/06/29 03:59:50;;;;;;;10.45;4.53;;;;;;;14.26;100.00;100444.00;5049795;28;20036;-74
2023/06/29 04:02:16;;;;;;;5.93;4.82;;;;;;;14.31;100.00;100440.38;5021483;28;20124;-73
2023/06/29 04:04:42;;;;;;;4.75;4.13;;;;;;;14.37;100.00;100444.84;5039325;28;20107;-73
2023/06/29 04:07:08;;;;;;;6.22;4.47;;;;;;;14.44;100.00;100440.66;5054844;28;20087;-76
2023/06/29 04:09:37;;;;;;;6.70;4.57;;;;;;;14.50;100.00;100443.56;5056710;28;20121;-77
2023/06/29 04:12:05;;;;;;;13.38;5.40;;;;;;;14.57;100.00;100443.09;5056933;28;20074;-76
2023/06/29 04:14:31;;;;;;;8.32;4.35;;;;;;;14.63;100.00;100455.41;5056669;28;20028;-76
2023/06/29 04:16:58;;;;;;;9.48;4.25;;;;;;;14.70;100.00;100452.03;5057058;28;20066;-75
2023/06/29 04:19:23;;;;;;;9.40;4.57;;;;;;;14.76;100.00;100447.09;5057419;28;20387;-76
2023/06/29 04:21:49;;;;;;;7.35;4.22;;;;;;;14.83;100.00;100455.22;5057398;28;20493;-74
2023/06/29 04:24:29;;;;;;;8.88;4.88;;;;;;;14.95;100.00;100442.44;5059427;28;20079;-75
2023/06/29 04:26:55;;;;;;;8.43;4.70;;;;;;;15.01;100.00;100446.13;5041110;28;20037;-76
2023/06/29 04:29:23;;;;;;;8.05;4.20;;;;;;;15.11;100.00;100456.06;5057836;28;20037;-74
2023/06/29 04:31:50;;;;;;;5.90;4.03;;;;;;;15.18;100.00;100455.53;5060687;28;20051;-75
2023/06/29 04:34:17;;;;;;;7.70;4.57;;;;;;;15.23;100.00;100448.22;5060366;28;20048;-77
2023/06/29 04:36:45;;;;;;;6.10;3.75;;;;;;;15.31;100.00;100451.38;5056635;28;20036;-77
2023/06/29 04:39:13;;;;;;;5.82;4.13;;;;;;;15.41;100.00;100465.00;5056435;28;20446;-76
2023/06/29 04:41:40;;;;;;;8.00;4.30;;;;;;;15.48;100.00;100460.78;5057277;28;20378;-78
2023/06/29 04:44:10;;;;;;;7.18;4.30;;;;;;;15.56;100.00;100453.97;5055737;28;20067;-81
2023/06/29 04:46:39;;;;;;;6.68;4.03;;;;;;;15.69;100.00;100462.94;5057259;28;20043;-82
2023/06/29 04:49:06;;;;;;;8.07;4.38;;;;;;;15.82;100.00;100456.63;5056757;28;20098;-80
2023/06/29 04:51:34;;;;;;;8.88;4.13;;;;;;;15.93;100.00;100456.59;5039012;28;20033;-80
2023/06/29 04:53:59;;;;;;;8.70;4.07;;;;;;;16.06;100.00;100458.91;5038689;28;20382;-82
2023/06/29 04:56:25;;;;;;;7.32;3.78;;;;;;;16.18;100.00;100453.91;5038231;28;20041;-80
2023/06/29 04:58:50;;;;;;;7.95;4.28;;;;;;;16.24;100.00;100449.72;5054981;28;20041;-79
2023/06/29 05:01:24;;;;;;;8.98;3.65;;;;;;;16.34;100.00;100444.44;5055779;28;20052;-83
2023/06/29 05:03:50;;;;;;;4.88;3.72;;;;;;;16.42;100.00;100452.00;5056602;28;20446;-78
2023/06/29 05:06:17;;;;;;;9.20;4.28;;;;;;;16.41;100.00;100426.56;5056150;28;20021;-81
2023/06/29 05:08:43;;;;;;;5.57;4.07;;;;;;;16.73;100.00;100444.28;5051807;28;20041;-79
2023/06/29 05:11:09;;;;;;;8.90;4.30;;;;;;;16.79;100.00;100442.94;5054949;28;20477;-83
2023/06/29 05:13:37;;;;;;;7.22;3.60;;;;;;;16.78;100.00;100438.50;5055316;28;20029;-79
2023/06/29 05:16:04;;;;;;;6.88;3.88;;;;;;;16.93;100.00;100436.03;5055991;28;20107;-78
2023/06/29 05:18:30;;;;;;;9.13;3.83;;;;;;;17.04;100.00;100443.06;5038267;28;20040;-81
2023/06/29 05:20:59;;;;;;;6.43;3.65;;;;;;;17.17;100.00;100443.22;5021973;28;20059;-81
2023/06/29 05:23:27;;;;;;;6.20;3.65;;;;;;;17.30;100.00;100434.72;5056947;28;20039;-79
2023/06/29 05:25:53;;;;;;;8.38;3.97;;;;;;;17.40;100.00;100430.16;5038279;28;20040;-80
2023/06/29 05:28:19;;;;;;;8.77;3.67;;;;;;;17.32;100.00;100406.09;5054562;28;20158;-80
2023/06/29 05:30:46;;;;;;;5.88;3.50;;;;;;;17.60;100.00;100441.31;5037385;28;20462;-80
2023/06/29 05:33:11;;;;;;;6.97;3.63;;;;;;;17.54;100.00;100411.69;5053900;28;20047;-81
2023/06/29 05:35:38;;;;;;;6.03;3.80;;;;;;;17.60;100.00;100432.66;5036731;28;20393;-81
2023/06/29 05:38:04;;;;;;;4.75;3.80;;;;;;;17.42;100.00;100407.31;5055106;28;20025;-82
2023/06/29 05:40:36;;;;;;;9.45;4.20;;;;;;;17.63;100.00;100434.50;5055151;28;20036;-81
2023/06/29 05:43:02;;;;;;;9.77;4.20;;;;;;;17.63;100.00;100437.38;5054077;28;20041;-80
2023/06/29 05:45:35;;;;;;;7.38;3.60;;;;;;;17.64;100.00;100426.56;5054840;28;20029;-82
2023/06/29 05:48:03;;;;;;;9.88;3.90;;;;;;;17.74;100.00;100437.25;5054310;28;20032;-81
2023/06/29 05:50:34;;;;;;;7.85;3.83;;;;;;;17.88;100.00;100438.19;5054180;28;20040;-81
2023/06/29 05:52:59;;;;;;;9.65;3.25;;;;;;;18.24;100.00;100433.03;5054607;28;20033;-81
2023/06/29 05:55:26;;;;;;;3.90;2.88;;;;;;;19.36;100.00;100441.03;5054146;28;20036;-82
2023/06/29 05:57:52;;;;;;;4.63;2.67;;;;;;;20.87;100.00;100433.94;5054073;28;20025;-81
2023/06/29 06:00:18;;;;;;;5.18;3.03;;;;;;;22.47;100.00;100431.16;5036516;28;20051;-82
2023/06/29 06:02:45;;;;;;;2.67;2.47;;;;;;;24.02;100.00;100417.97;5055081;28;20044;-83
2023/06/29 06:05:12;;;;;;;6.03;2.90;;;;;;;25.44;100.00;100426.03;5055297;28;20025;-82
2023/06/29 06:07:38;;;;;;;5.53;2.55;;;;;;;26.87;100.00;100423.16;5037167;28;20056;-82
2023/06/29 06:10:05;;;;;;;7.25;3.85;;;;;;;28.16;96.99;100423.38;5055231;28;20083;-82
2023/06/29 06:12:32;;;;;;;16.02;3.63;;;;;;;29.27;90.34;100418.03;5054970;28;20036;-81
2023/06/29 06:14:58;;;;;;;10.70;3.13;;;;;;;30.34;67.97;100427.97;5054954;28;20051;-81
2023/06/29 06:17:24;;;;;;;7.43;3.15;;;;;;;30.91;55.87;100440.72;5054763;28;20446;-82
2023/06/29 06:19:49;;;;;;;4.55;2.28;;;;;;;31.43;64.11;100431.69;5037201;28;20127;-82
2023/06/29 06:22:15;;;;;;;5.47;2.70;;;;;;;32.13;61.74;100434.72;5055060;28;20029;-81
2023/06/29 06:24:43;;;;;;;7.93;2.35;;;;;;;33.09;56.80;100439.91;5054390;28;20124;-81
2023/06/29 06:27:10;;;;;;;6.28;2.58;;;;;;;34.02;50.87;100420.00;5054641;28;20040;-81
2023/06/29 06:29:37;;;;;;;4.68;2.33;;;;;;;34.77;43.64;100428.53;5055044;28;20032;-80
2023/06/29 06:32:04;;;;;;;8.23;2.63;;;;;;;35.09;40.83;100438.38;5044310;28;20120;-83
2023/06/29 06:34:32;;;;;;;3.38;2.55;;;;;;;35.22;39.79;100433.03;5053505;28;20041;-82
2023/06/29 06:36:59;;;;;;;7.30;2.83;;;;;;;35.54;36.41;100426.53;5037042;28;20021;-82
2023/06/29 06:39:26;;;;;;;2.83;2.15;;;;;;;34.78;34.14;100424.13;5036418;28;20154;-82
2023/06/29 06:41:52;;;;;;;3.40;2.30;;;;;;;35.05;37.92;100434.41;5036357;28;20021;-82
2023/06/29 06:44:18;;;;;;;4.28;2.05;;;;;;;35.48;38.56;100432.13;5051713;28;20037;-84
2023/06/29 06:46:43;;;;;;;5.00;2.83;;;;;;;36.22;35.77;100442.34;5052534;28;20090;-81
2023/06/29 06:49:09;;;;;;;3.15;2.30;;;;;;;36.95;35.39;100439.69;5054263;28;20116;-79
2023/06/29 06:51:35;;;;;;;5.28;2.15;;;;;;;37.21;33.48;100443.78;5054053;28;20154;-76
2023/06/29 06:54:01;;;;;;;5.18;2.70;;;;;;;37.56;33.01;100422.91;5039996;28;20063;-81
2023/06/29 06:56:28;;;;;;;2.53;2.08;;;;;;;38.06;32.88;100429.34;5029983;28;20368;-80
2023/06/29 06:58:54;;;;;;;3.92;1.90;;;;;;;38.61;32.37;100423.19;5034394;28;20029;-79
2023/06/29 07:01:39;;;;;;;2.60;1.92;;;;;;;39.09;28.15;100420.41;5034407;28;20034;-79
2023/06/29 07:04:04;;;;;;;14.23;2.60;;;;;;;38.95;29.06;100418.44;5016577;28;20058;-76
2023/06/29 07:06:33;;;;;;;4.53;1.60;;;;;;;38.87;30.25;100405.44;5032444;28;20033;-78
2023/06/29 07:09:00;;;;;;;3.57;2.23;;;;;;;38.80;28.53;100415.66;5016138;28;20048;-80
2023/06/29 07:11:28;;;;;;;7.28;2.47;;;;;;;39.42;30.29;100413.25;5015479;28;20033;-79
2023/06/29 07:13:55;;;;;;;6.32;2.00;;;;;;;39.93;28.09;100391.72;5016256;28;20371;-79
2023/06/29 07:16:24;;;;;;;4.82;2.28;;;;;;;40.33;27.47;100407.91;5015966;28;20038;-78
2023/06/29 07:19:12;;;;;;;8.77;2.25;;;;;;;40.61;25.51;100401.91;5034076;28;20040;-79
2023/06/29 07:21:39;;;;;;;6.82;2.20;;;;;;;40.82;26.64;100409.25;4999850;28;20478;-79
2023/06/29 07:24:07;;;;;;;7.38;2.10;;;;;;;41.26;25.24;100395.38;5033942;28;20030;-78
2023/06/29 07:26:34;;;;;;;9.52;3.38;;;;;;;41.30;24.65;100398.47;5033523;28;20538;-80
2023/06/29 07:29:01;;;;;;;4.55;2.60;;;;;;;41.10;25.32;100394.22;5033449;28;20025;-78
2023/06/29 07:31:29;;;;;;;3.88;2.33;;;;;;;40.77;24.80;100396.38;5013823;28;20041;-77
2023/06/29 07:33:55;;;;;;;8.35;2.35;;;;;;;40.74;25.11;100391.03;5016117;28;20037;-81
2023/06/29 07:36:34;;;;;;;5.50;2.22;;;;;;;40.81;24.30;100390.47;4998581;28;20099;-78
2023/06/29 07:39:01;;;;;;;4.30;2.35;;;;;;;40.62;24.20;100391.44;5033354;28;20028;-80
2023/06/29 07:41:27;;;;;;;2.42;2.00;;;;;;;40.31;25.57;100392.84;5033575;28;20053;-78
2023/06/29 07:43:56;;;;;;;4.20;1.98;;;;;;;39.80;24.96;100388.31;5033229;28;20542;-79
2023/06/29 07:46:23;;;;;;;3.72;2.20;;;;;;;38.36;25.31;100384.94;5015677;28;20109;-77
2023/06/29 07:48:54;;;;;;;5.72;2.25;;;;;;;37.50;27.23;100386.88;5033254;28;20042;-79
2023/06/29 07:51:21;;;;;;;5.38;2.08;;;;;;;37.43;26.91;100390.28;5033183;28;20018;-78
2023/06/29 07:53:47;;;;;;;2.92;1.67;;;;;;;37.71;28.19;100382.47;5033361;28;20504;-79
2023/06/29 07:56:14;;;;;;;7.15;2.83;;;;;;;38.33;27.81;100386.31;5028969;28;20155;-78
2023/06/29 07:58:40;;;;;;;3.42;1.58;;;;;;;39.13;26.95;100387.66;5015889;28;20028;-79
2023/06/29 08:01:05;;;;;;;3.65;1.70;;;;;;;39.79;24.98;100380.78;4999169;28;20033;-78
2023/06/29 08:03:32;;;;;;;3.47;1.80;;;;;;;39.78;25.55;100369.53;5030866;28;20041;-77
2023/06/29 08:05:59;;;;;;;3.25;2.00;;;;;;;39.38;26.35;100375.00;5033093;28;20029;-77
2023/06/29 08:08:28;;;;;;;5.53;1.77;;;;;;;39.50;25.81;100372.41;5015662;28;20025;-77
2023/06/29 08:10:54;;;;;;;3.67;2.05;;;;;;;39.53;25.24;100371.03;5016118;28;20033;-78
2023/06/29 08:13:23;;;;;;;4.40;2.15;;;;;;;39.13;25.05;100366.72;5015057;28;20052;-75
2023/06/29 08:15:50;;;;;;;4.70;2.40;;;;;;;38.63;26.15;100351.56;5033173;28;20030;-78
2023/06/29 08:18:16;;;;;;;4.03;1.90;;;;;;;38.12;26.64;100363.88;5015520;28;20040;-77
2023/06/29 08:20:42;;;;;;;4.43;1.73;;;;;;;37.85;26.27;100365.13;5028779;28;20050;-76
2023/06/29 08:23:08;;;;;;;4.10;1.90;;;;;;;36.97;27.03;100369.03;5033077;28;20057;-77
2023/06/29 08:25:43;;;;;;;2.83;1.92;;;;;;;36.01;27.67;100381.13;5030206;28;20033;-76
2023/06/29 08:28:10;;;;;;;3.05;1.90;;;;;;;35.20;30.02;100359.41;5011763;28;20060;-77
2023/06/29 08:30:37;;;;;;;4.65;1.75;;;;;;;35.17;30.44;100375.59;5013596;28;20118;-77
2023/06/29 08:33:03;;;;;;;3.35;1.80;;;;;;;35.50;30.39;100372.75;5013139;28;20104;-77
2023/06/29 08:35:29;;;;;;;2.97;2.20;;;;;;;36.22;29.37;100370.91;5011911;28;20121;-77
2023/06/29 08:37:55;;;;;;;2.63;1.63;;;;;;;36.53;28.33;100364.91;4995585;28;20117;-77
2023/06/29 08:40:22;;;;;;;3.75;1.90;;;;;;;36.22;28.80;100362.75;5011726;28;20033;-80
2023/06/29 08:42:50;;;;;;;12.52;3.67;;;;;;;35.32;29.46;100371.88;5011836;28;20038;-78
2023/06/29 08:45:15;;;;;;;5.45;2.40;;;;;;;34.23;29.75;100355.16;5011530;28;20033;-78
2023/06/29 08:47:46;;;;;;;5.90;2.47;;;;;;;33.78;32.38;100369.00;5015262;28;20383;-80
2023/06/29 08:50:13;;;;;;;5.03;1.90;;;;;;;33.85;32.11;100371.66;4999429;28;20065;-78
2023/06/29 08:52:42;;;;;;;6.38;2.08;;;;;;;34.35;31.48;100361.75;5010849;28;20038;-76
2023/06/29 08:55:10;;;;;;;2.33;1.60;;;;;;;35.20;30.38;100365.34;5015187;28;20034;-82
2023/06/29 08:57:50;;;;;;;2.97;1.92;;;;;;;36.12;28.75;100362.28;5015275;28;20069;-80
2023/06/29 09:00:18;;;;;;;5.07;1.60;;;;;;;36.81;28.04;100353.41;5016676;28;20060;-81
2023/06/29 09:02:45;;;;;;;7.47;2.17;;;;;;;37.42;29.12;100355.97;5015078;28;20077;-80
2023/06/29 09:05:14;;;;;;;3.25;1.42;;;;;;;37.92;29.12;100354.94;5016159;28;20026;-80
2023/06/29 09:07:41;;;;;;;11.05;2.40;;;;;;;38.15;27.96;100362.50;5014273;28;20022;-82
2023/06/29 09:10:10;;;;;;;3.42;1.80;;;;;;;38.50;26.49;100359.34;5016043;28;20033;-80
2023/06/29 09:12:36;;;;;;;4.80;1.88;;;;;;;38.15;25.82;100350.56;5014068;28;20029;-79
2023/06/29 09:15:10;;;;;;;5.43;2.05;;;;;;;37.11;26.69;100351.72;5016056;28;20028;-79
2023/06/29 09:17:36;;;;;;;2.22;1.58;;;;;;;36.24;28.64;100359.84;5014522;28;20230;-80
2023/06/29 09:20:11;;;;;;;8.10;1.73;;;;;;;35.72;28.45;100364.16;5015012;28;20065;-81
2023/06/29 09:22:39;;;;;;;5.80;1.77;;;;;;;35.56;27.89;100352.25;5013726;28;20092;-80
2023/06/29 09:25:11;;;;;;;6.00;1.58;;;;;;;35.74;28.32;100345.63;5013983;28;20395;-80
2023/06/29 09:27:37;;;;;;;3.00;1.95;;;;;;;35.99;28.31;100351.28;5023993;28;20498;-80
2023/06/29 09:30:04;;;;;;;3.83;1.83;;;;;;;35.88;27.62;100355.22;5017446;28;20031;-81
2023/06/29 09:32:37;;;;;;;6.55;1.73;;;;;;;35.92;28.40;100350.22;5018021;28;20044;-80
2023/06/29 09:35:17;;;;;;;5.13;1.73;;;;;;;35.64;29.39;100348.91;5018418;28;20116;-81
2023/06/29 09:37:44;;;;;;;8.82;2.92;;;;;;;35.43;29.94;100352.31;5019054;28;20492;-80
2023/06/29 09:40:19;;;;;;;5.47;1.88;;;;;;;35.52;29.55;100351.28;5037342;28;20383;-81
2023/06/29 09:42:45;;;;;;;4.43;2.08;;;;;;;35.77;29.08;100342.06;5038449;28;20518;-82
2023/06/29 09:45:14;;;;;;;2.78;1.38;;;;;;;35.58;28.60;100330.78;5020423;28;20101;-80
2023/06/29 09:47:43;;;;;;;3.30;2.00;;;;;;;34.95;29.29;100330.69;5002830;28;20028;-80
2023/06/29 09:50:22;;;;;;;4.38;1.95;;;;;;;33.89;29.65;100327.38;5019765;28;20490;-81
2023/06/29 09:52:56;;;;;;;3.55;1.98;;;;;;;32.99;32.47;100329.72;5037369;28;20021;-81
2023/06/29 09:55:30;;;;;;;2.58;1.67;;;;;;;31.87;32.83;100339.22;5019794;28;20030;-80
2023/06/29 09:57:56;;;;;;;4.50;1.63;;;;;;;30.89;34.40;100338.06;5019556;28;20052;-79
2023/06/29 10:00:22;;;;;;;3.50;1.90;;;;;;;30.35;37.32;100344.00;5002716;28;20040;-80
2023/06/29 10:02:50;;;;;;;2.22;1.60;;;;;;;30.19;36.85;100342.88;5003449;28;20466;-80
2023/06/29 10:05:17;;;;;;;3.53;2.10;;;;;;;30.12;37.00;100338.72;5037077;28;20021;-81
2023/06/29 10:07:43;;;;;;;2.53;1.70;;;;;;;30.01;39.32;100329.78;5038675;28;20032;-79
2023/06/29 10:10:14;;;;;;;4.30;1.83;;;;;;;29.83;40.07;100337.34;5005153;28;20111;-79
2023/06/29 10:12:41;;;;;;;3.83;1.90;;;;;;;29.66;41.21;100335.44;5005067;28;20423;-79
2023/06/29 10:15:09;;;;;;;2.92;1.50;;;;;;;29.48;40.60;100331.16;5040300;28;20029;-79
2023/06/29 10:18:06;;;;;;;4.13;1.60;;;;;;;29.00;42.12;100326.19;5024257;28;20434;-80
2023/06/29 10:20:33;;;;;;;3.80;1.60;;;;;;;29.07;40.90;100328.22;5021317;28;20026;-80
2023/06/29 10:23:02;;;;;;;5.20;1.70;;;;;;;29.34;41.88;100327.94;5039827;28;20029;-79
2023/06/29 10:25:29;;;;;;;4.05;1.50;;;;;;;29.63;38.71;100316.81;5038893;28;20128;-80
2023/06/29 10:27:56;;;;;;;1.73;1.63;;;;;;;29.71;38.69;100323.31;5039135;28;20064;-80
2023/06/29 10:30:21;;;;;;;3.08;1.50;;;;;;;29.76;37.62;100315.53;5023345;28;20030;-80
2023/06/29 10:32:52;;;;;;;2.35;1.40;;;;;;;29.72;38.95;100316.00;5022510;28;20432;-79
2023/06/29 10:35:18;;;;;;;1.77;1.40;;;;;;;29.74;38.87;100312.44;5039645;28;20029;-80
2023/06/29 10:37:49;;;;;;;6.57;1.77;;;;;;;29.62;41.87;100303.53;5042327;28;20017;-79
2023/06/29 10:40:20;;;;;;;1.77;1.50;;;;;;;29.28;36.91;100298.84;5025133;28;20017;-80
2023/06/29 10:42:49;;;;;;;5.28;1.65;;;;;;;29.14;37.64;100305.88;5042161;28;20549;-79
2023/06/29 10:45:17;;;;;;;3.25;1.52;;;;;;;29.09;40.81;100301.84;5046359;28;20025;-79
2023/06/29 10:47:44;;;;;;;2.05;1.33;;;;;;;28.92;37.89;100295.38;5045667;28;20029;-79
2023/06/29 10:50:10;;;;;;;2.78;1.60;;;;;;;28.79;39.92;100306.25;5012064;28;20117;-79
2023/06/29 10:52:37;;;;;;;6.10;1.52;;;;;;;28.80;42.91;100290.16;5045777;28;20071;-79
2023/06/29 10:55:14;;;;;;;4.82;1.42;;;;;;;28.83;42.15;100291.09;5023809;28;20025;-80
2023/06/29 10:57:54;;;;;;;2.65;1.40;;;;;;;28.69;40.28;100298.84;5044015;28;20040;-78
2023/06/29 11:00:20;;;;;;;3.97;1.63;;;;;;;28.35;42.83;100286.00;5024192;28;20039;-79
2023/06/29 11:02:51;;;;;;;4.13;1.63;;;;;;;28.18;41.61;100291.28;5024398;28;20367;-80
2023/06/29 11:05:19;;;;;;;4.38;1.50;;;;;;;28.14;42.12;100293.94;5027988;28;20101;-80
2023/06/29 11:07:51;;;;;;;2.90;1.55;;;;;;;28.15;41.35;100289.56;5025384;28;20445;-78
2023/06/29 11:10:20;;;;;;;2.13;1.35;;;;;;;28.13;40.90;100280.63;5039631;28;20032;-79
2023/06/29 11:12:49;;;;;;;2.92;1.48;;;;;;;28.13;43.71;100289.44;5024913;28;20398;-80
2023/06/29 11:15:16;;;;;;;3.15;1.70;;;;;;;28.05;44.91;100283.69;5025134;28;20089;-78
2023/06/29 11:17:44;;;;;;;2.72;1.33;;;;;;;27.87;42.43;100283.03;5044901;28;20029;-78
2023/06/29 11:20:14;;;;;;;3.78;1.98;;;;;;;27.76;44.41;100271.88;5024044;28;20033;-79
2023/06/29 11:22:41;;;;;;;5.35;1.88;;;;;;;27.74;47.27;100274.69;5006066;28;20033;-79